EDSB/FKB METAR and TAF weather

Enter ICAO airport designator
Station Type Date Time Source
EDSB METAR 2019/06/26 21:50 UTC NOAA

EDSB 262150Z VRB01KT CAVOK 26/21 Q1021


Station Type Date Time Source
EDSB Decoded METAR 2019/06/26 21:50 UTC NOAA

Karlsruhe, Baden Wurttemberg, Germany (EDSB) 48-46-43N 008-04-47E
Jun 26, 2019 - 05:50 PM EDT / 2019.06.26 2150 UTC
Wind: Variable at 1 MPH (1 KT):0
Visibility: greater than 7 mile(s):0
Temperature: 78 F (26 C)
Dew Point: 69 F (21 C)
Relative Humidity: 73%
Pressure (altimeter): 30.15 in. Hg (1021 hPa)
ob: EDSB 262150Z VRB01KT CAVOK 26/21 Q1021
cycle: 22

Station Type Date Time Source
EDSB TAF 2019/06/26 18:27 UTC NOAA

TAF EDSB 261700Z 2618/2718 02008KT CAVOK

Example: see airport list